createdAt,value
2023-11-30T00:01:46.467Z,2.33
2023-11-30T00:04:14.569Z,2.35
2023-11-30T00:06:42.559Z,2.30
2023-11-30T00:09:10.538Z,2.17
2023-11-30T00:11:38.493Z,2.17
2023-11-30T00:14:07.885Z,2.47
2023-11-30T00:16:35.879Z,2.10
2023-11-30T00:19:04.021Z,1.90
2023-11-30T00:21:31.979Z,1.90
2023-11-30T00:24:00.075Z,2.10
2023-11-30T00:26:28.120Z,2.35
2023-11-30T00:28:56.217Z,3.35
2023-11-30T00:31:27.366Z,1.80
2023-11-30T00:33:57.202Z,2.00
2023-11-30T00:36:25.196Z,1.63
2023-11-30T00:38:53.356Z,2.30
2023-11-30T00:41:21.967Z,1.75
2023-11-30T00:43:49.973Z,1.70
2023-11-30T00:46:18.033Z,2.05
2023-11-30T00:48:48.241Z,1.63
2023-11-30T00:51:16.393Z,2.13
2023-11-30T00:53:44.319Z,1.55
2023-11-30T00:56:12.826Z,1.52
2023-11-30T00:58:40.934Z,1.80
2023-11-30T01:01:08.955Z,1.77
2023-11-30T01:03:37.025Z,1.77
2023-11-30T01:06:06.925Z,1.40
2023-11-30T01:08:34.953Z,1.63
2023-11-30T01:11:04.537Z,2.17
2023-11-30T01:13:32.569Z,1.38
2023-11-30T01:16:00.554Z,1.10
2023-11-30T01:18:28.643Z,1.77
2023-11-30T01:20:56.752Z,2.05
2023-11-30T01:23:26.172Z,1.98
2023-11-30T01:25:54.193Z,1.55
2023-11-30T01:28:22.268Z,1.73
2023-11-30T01:30:51.356Z,1.20
2023-11-30T01:33:19.474Z,1.60
2023-11-30T01:35:49.260Z,1.23
2023-11-30T01:38:17.317Z,1.10
2023-11-30T01:40:46.718Z,1.63
2023-11-30T01:43:14.719Z,1.13
2023-11-30T01:45:42.819Z,1.38
2023-11-30T01:48:12.021Z,1.48
2023-11-30T01:50:40.079Z,1.42
2023-11-30T01:53:08.415Z,1.75
2023-11-30T01:55:36.365Z,1.30
2023-11-30T01:58:05.931Z,1.40
2023-11-30T02:00:34.443Z,1.30
2023-11-30T02:03:02.556Z,1.17
2023-11-30T02:05:30.665Z,1.95
2023-11-30T02:07:58.715Z,1.17
2023-11-30T02:10:26.627Z,1.17
2023-11-30T02:12:54.609Z,1.10
2023-11-30T02:15:24.821Z,1.20
2023-11-30T02:17:52.967Z,1.08
2023-11-30T02:20:21.148Z,1.00
2023-11-30T02:22:50.531Z,1.35
2023-11-30T02:25:18.485Z,1.00
2023-11-30T02:27:46.443Z,0.80
2023-11-30T02:30:14.936Z,1.42
2023-11-30T02:32:43.038Z,1.38
2023-11-30T02:35:11.475Z,1.60
2023-11-30T02:37:39.497Z,1.35
2023-11-30T02:40:10.205Z,0.93
2023-11-30T02:42:38.215Z,0.90
2023-11-30T02:45:07.121Z,1.30
2023-11-30T02:47:35.149Z,0.98
2023-11-30T02:50:03.235Z,1.25
2023-11-30T02:52:31.223Z,1.20
2023-11-30T02:54:59.128Z,0.98
2023-11-30T02:57:28.560Z,1.15
2023-11-30T02:59:56.544Z,1.00
2023-11-30T03:02:26.719Z,0.95
2023-11-30T03:04:56.114Z,1.10
2023-11-30T03:07:24.200Z,1.20
2023-11-30T03:09:52.262Z,1.10
2023-11-30T03:12:20.263Z,0.95
2023-11-30T03:14:49.666Z,1.10
2023-11-30T03:17:17.594Z,1.00
2023-11-30T03:19:45.544Z,0.88
2023-11-30T03:22:13.587Z,1.13
2023-11-30T03:24:41.599Z,0.93
2023-11-30T03:27:13.117Z,0.85
2023-11-30T03:29:42.022Z,0.90
2023-11-30T03:32:11.434Z,0.60
2023-11-30T03:34:39.452Z,0.82
2023-11-30T03:37:07.546Z,0.85
2023-11-30T03:39:35.589Z,0.80
2023-11-30T03:42:03.637Z,1.23
2023-11-30T03:44:31.752Z,1.10
2023-11-30T03:47:00.752Z,0.93
2023-11-30T03:49:30.178Z,1.05
2023-11-30T03:51:58.054Z,1.27
2023-11-30T03:54:26.119Z,1.00
2023-11-30T03:56:54.186Z,1.10
2023-11-30T03:59:22.203Z,0.80
2023-11-30T04:01:50.254Z,0.77
2023-11-30T04:04:18.325Z,1.58
2023-11-30T04:06:47.737Z,0.88
2023-11-30T04:09:19.094Z,0.88
2023-11-30T04:11:47.771Z,0.60
2023-11-30T04:14:15.806Z,0.82
2023-11-30T04:16:43.906Z,0.88
2023-11-30T04:19:12.002Z,1.15
2023-11-30T04:21:40.659Z,1.63
2023-11-30T04:24:10.253Z,0.85
2023-11-30T04:26:38.402Z,0.88
2023-11-30T04:29:06.529Z,1.20
2023-11-30T04:31:34.647Z,0.82
2023-11-30T04:34:02.727Z,0.68
2023-11-30T04:36:30.811Z,1.05
2023-11-30T04:38:58.883Z,0.70
2023-11-30T04:41:28.289Z,0.93
2023-11-30T04:43:58.385Z,1.30
2023-11-30T04:46:27.726Z,1.02
2023-11-30T04:48:56.702Z,0.70
2023-11-30T04:51:25.674Z,1.10
2023-11-30T04:53:53.774Z,0.90
2023-11-30T04:56:21.734Z,0.82
2023-11-30T04:58:51.190Z,0.45
2023-11-30T05:01:19.199Z,0.68
2023-11-30T05:03:47.436Z,0.88
2023-11-30T05:06:15.565Z,0.63
2023-11-30T05:08:43.631Z,0.60
2023-11-30T05:11:11.659Z,0.85
2023-11-30T05:13:39.830Z,0.63
2023-11-30T05:16:10.386Z,0.65
2023-11-30T05:18:38.425Z,0.57
2023-11-30T05:21:06.947Z,0.60
2023-11-30T05:23:34.969Z,0.80
2023-11-30T05:26:03.134Z,0.73
2023-11-30T05:28:33.300Z,0.70
2023-11-30T05:31:01.554Z,0.90
2023-11-30T05:33:32.272Z,0.88
2023-11-30T05:36:00.494Z,1.10
2023-11-30T05:38:28.593Z,0.93
2023-11-30T05:40:57.298Z,0.63
2023-11-30T05:43:25.292Z,0.70
2023-11-30T05:45:54.346Z,0.63
2023-11-30T05:48:22.565Z,0.80
2023-11-30T05:50:52.115Z,0.80
2023-11-30T05:53:20.080Z,1.00
2023-11-30T05:55:48.024Z,0.73
2023-11-30T05:58:16.039Z,0.70
2023-11-30T06:00:44.214Z,0.88
2023-11-30T06:03:12.359Z,0.75
2023-11-30T06:05:40.380Z,0.60
2023-11-30T06:08:10.549Z,0.55
2023-11-30T06:10:39.087Z,0.88
2023-11-30T06:13:08.450Z,0.70
2023-11-30T06:15:36.615Z,0.80
2023-11-30T06:18:04.856Z,0.90
2023-11-30T06:20:33.187Z,0.80
2023-11-30T06:23:01.135Z,1.10
2023-11-30T06:25:30.505Z,0.85
2023-11-30T06:27:58.560Z,0.70
2023-11-30T06:30:26.554Z,0.82
2023-11-30T06:32:54.563Z,0.68
2023-11-30T06:35:22.973Z,1.00
2023-11-30T06:37:50.966Z,1.58
2023-11-30T06:40:18.900Z,0.68
2023-11-30T06:42:48.305Z,0.80
2023-11-30T06:45:16.387Z,1.17
2023-11-30T06:47:44.446Z,1.20
2023-11-30T06:50:12.481Z,0.70
2023-11-30T06:52:40.440Z,0.75
2023-11-30T06:55:11.102Z,0.70
2023-11-30T06:57:39.845Z,1.15
2023-11-30T07:00:12.192Z,1.00
2023-11-30T07:02:40.450Z,1.10
2023-11-30T07:05:09.405Z,0.70
2023-11-30T07:07:37.749Z,0.80
2023-11-30T07:10:06.370Z,1.02
2023-11-30T07:12:34.485Z,0.90
2023-11-30T07:15:02.796Z,0.80
2023-11-30T07:17:33.777Z,1.05
2023-11-30T07:20:01.819Z,0.68
2023-11-30T07:22:30.740Z,1.23
2023-11-30T07:24:58.753Z,0.88
2023-11-30T07:27:27.691Z,0.63
2023-11-30T07:29:55.766Z,0.70
2023-11-30T07:32:23.815Z,0.63
2023-11-30T07:34:53.279Z,1.10
2023-11-30T07:37:23.418Z,0.90
2023-11-30T07:39:51.340Z,1.00
2023-11-30T07:42:29.311Z,1.00
2023-11-30T07:45:03.094Z,0.80
2023-11-30T07:47:31.970Z,0.85
2023-11-30T07:50:01.648Z,0.90
2023-11-30T07:52:30.227Z,0.70
2023-11-30T07:54:58.258Z,0.80
2023-11-30T07:57:26.453Z,0.75
2023-11-30T07:59:54.569Z,0.75
2023-11-30T08:02:22.657Z,0.90
2023-11-30T08:04:50.741Z,0.90
2023-11-30T08:07:22.088Z,0.82
2023-11-30T08:09:50.210Z,1.23
2023-11-30T08:12:18.344Z,0.73
2023-11-30T08:14:46.373Z,1.00
2023-11-30T08:17:14.396Z,0.80
2023-11-30T08:19:42.314Z,0.70
2023-11-30T08:22:11.392Z,0.80
2023-11-30T08:24:41.902Z,0.93
2023-11-30T08:27:09.918Z,0.80
2023-11-30T08:29:38.089Z,0.60
2023-11-30T08:32:07.349Z,0.90
2023-11-30T08:34:38.103Z,0.73
2023-11-30T08:37:06.555Z,1.05
2023-11-30T08:39:34.498Z,0.73
2023-11-30T08:42:04.043Z,0.70
2023-11-30T08:44:35.463Z,1.00
2023-11-30T08:47:03.588Z,0.98
2023-11-30T08:49:31.559Z,0.85
2023-11-30T08:51:59.562Z,0.90
2023-11-30T08:54:27.802Z,1.25
2023-11-30T08:56:55.838Z,0.88
2023-11-30T08:59:25.211Z,1.00
2023-11-30T09:01:53.552Z,1.05
2023-11-30T09:04:21.813Z,0.80
2023-11-30T09:06:49.876Z,0.80
2023-11-30T09:09:18.484Z,0.90
2023-11-30T09:11:46.897Z,0.35
2023-11-30T09:14:14.846Z,0.90
2023-11-30T09:16:45.405Z,0.55
2023-11-30T09:19:13.500Z,1.00
2023-11-30T09:21:41.562Z,1.20
2023-11-30T09:24:11.197Z,1.10
2023-11-30T09:26:39.231Z,0.70
2023-11-30T09:29:07.299Z,0.73
2023-11-30T09:31:35.375Z,1.05
2023-11-30T09:34:04.893Z,0.90
2023-11-30T09:36:33.171Z,0.80
2023-11-30T09:39:01.176Z,0.90
2023-11-30T09:41:29.075Z,0.70
2023-11-30T09:43:58.427Z,0.80
2023-11-30T09:46:27.161Z,0.88
2023-11-30T09:48:55.186Z,1.05
2023-11-30T09:51:25.324Z,0.98
2023-11-30T09:53:53.259Z,1.30
2023-11-30T09:56:21.255Z,0.90
2023-11-30T09:59:01.397Z,1.00
2023-11-30T10:01:29.506Z,1.10
2023-11-30T10:03:58.027Z,0.90
2023-11-30T10:06:27.517Z,0.73
2023-11-30T10:08:56.317Z,0.75
2023-11-30T10:11:24.909Z,0.80
2023-11-30T10:13:53.132Z,1.17
2023-11-30T10:16:21.134Z,1.30
2023-11-30T10:18:49.388Z,1.55
2023-11-30T10:21:18.774Z,0.90
2023-11-30T10:23:48.228Z,1.13
2023-11-30T10:26:16.973Z,0.75
2023-11-30T10:28:46.366Z,0.80
2023-11-30T10:31:14.453Z,0.90
2023-11-30T10:33:42.582Z,0.70
2023-11-30T10:36:12.059Z,1.08
2023-11-30T10:38:42.188Z,0.98
2023-11-30T10:41:14.610Z,1.25
2023-11-30T10:43:49.752Z,0.52
2023-11-30T10:46:18.014Z,0.90
2023-11-30T10:48:46.305Z,1.55
2023-11-30T10:51:14.550Z,0.90
2023-11-30T10:53:44.771Z,0.80
2023-11-30T10:56:15.639Z,0.70
2023-11-30T10:58:44.582Z,0.85
2023-11-30T11:01:15.023Z,1.27
2023-11-30T11:03:47.344Z,0.70
2023-11-30T11:06:16.644Z,0.70
2023-11-30T11:09:00.566Z,0.73
2023-11-30T11:11:31.849Z,0.80
2023-11-30T11:14:00.166Z,0.77
2023-11-30T11:16:42.465Z,0.85
2023-11-30T11:19:10.975Z,0.73
2023-11-30T11:21:39.995Z,0.77
2023-11-30T11:24:09.078Z,1.00
2023-11-30T11:26:45.856Z,0.73
2023-11-30T11:29:16.477Z,0.47
2023-11-30T11:31:47.511Z,0.77
2023-11-30T11:34:16.821Z,0.77
2023-11-30T11:36:45.343Z,1.20
2023-11-30T11:39:14.564Z,0.90
2023-11-30T11:41:42.843Z,0.73
2023-11-30T11:44:12.435Z,0.60
2023-11-30T11:46:41.240Z,0.70
2023-11-30T11:49:09.533Z,1.42
2023-11-30T11:51:47.010Z,0.60
2023-11-30T11:54:19.871Z,0.85
2023-11-30T11:56:51.413Z,0.90
2023-11-30T11:59:24.763Z,0.70
2023-11-30T12:01:53.022Z,0.75
2023-11-30T12:04:28.888Z,0.73
2023-11-30T12:06:57.022Z,0.82
2023-11-30T12:09:25.199Z,0.50
2023-11-30T12:11:54.356Z,1.00
2023-11-30T12:14:23.570Z,1.33
2023-11-30T12:16:56.855Z,0.85
2023-11-30T12:19:26.418Z,0.65
2023-11-30T12:21:54.682Z,0.90
2023-11-30T12:24:22.901Z,2.08
2023-11-30T12:26:51.131Z,0.80
2023-11-30T12:29:18.394Z,0.93
2023-11-30T12:31:46.600Z,0.95
2023-11-30T12:34:17.190Z,0.80
2023-11-30T12:36:45.797Z,1.13
2023-11-30T12:39:16.279Z,0.65
2023-11-30T12:41:45.128Z,1.00
2023-11-30T12:44:13.452Z,0.73
2023-11-30T12:46:41.707Z,0.80
2023-11-30T12:49:09.913Z,0.90
2023-11-30T12:51:39.434Z,0.93
2023-11-30T12:54:08.698Z,0.95
2023-11-30T12:56:36.902Z,0.52
2023-11-30T12:59:05.055Z,0.77
2023-11-30T13:01:33.342Z,0.60
2023-11-30T13:04:02.952Z,0.90
2023-11-30T13:06:31.265Z,0.77
2023-11-30T13:09:00.996Z,0.90
2023-11-30T13:11:29.222Z,0.80
2023-11-30T13:13:57.579Z,1.02
2023-11-30T13:16:25.953Z,0.65
2023-11-30T13:18:54.564Z,0.70
2023-11-30T13:21:22.842Z,0.90
2023-11-30T13:23:50.977Z,1.63
2023-11-30T13:26:21.429Z,0.60
2023-11-30T13:28:52.532Z,0.70
2023-11-30T13:31:21.391Z,1.00
2023-11-30T13:33:50.033Z,0.90
2023-11-30T13:36:18.699Z,0.90
2023-11-30T13:38:46.873Z,0.85
2023-11-30T13:41:14.996Z,0.98
2023-11-30T13:43:44.606Z,1.00
2023-11-30T13:46:14.393Z,0.80
2023-11-30T13:48:45.377Z,0.90
2023-11-30T13:51:13.932Z,0.88
2023-11-30T13:53:42.401Z,1.33
2023-11-30T13:56:11.522Z,1.23
2023-11-30T13:58:39.719Z,1.08
2023-11-30T14:01:11.037Z,0.90
2023-11-30T14:03:39.828Z,1.20
2023-11-30T14:06:09.067Z,1.02
2023-11-30T14:08:38.085Z,0.93
2023-11-30T14:11:12.986Z,0.88
2023-11-30T14:13:41.416Z,0.95
2023-11-30T14:16:12.149Z,1.00
2023-11-30T14:18:42.447Z,1.08
2023-11-30T14:21:10.826Z,1.02
2023-11-30T14:23:38.905Z,1.25
2023-11-30T14:26:07.644Z,1.30
2023-11-30T14:28:36.145Z,0.80
2023-11-30T14:31:04.404Z,0.80
2023-11-30T14:33:34.073Z,0.80
2023-11-30T14:36:02.344Z,1.73
2023-11-30T14:38:31.525Z,0.82
2023-11-30T14:41:00.242Z,1.13
2023-11-30T14:43:28.486Z,0.60
2023-11-30T14:45:57.249Z,1.10
2023-11-30T14:48:25.554Z,0.90
2023-11-30T14:50:55.799Z,0.60
2023-11-30T14:53:24.421Z,0.80
2023-11-30T14:55:52.679Z,0.70
2023-11-30T14:58:21.733Z,1.15
2023-11-30T15:00:50.686Z,0.90
2023-11-30T15:03:19.231Z,0.75
2023-11-30T15:05:47.594Z,0.57
2023-11-30T15:08:18.450Z,0.85
2023-11-30T15:10:50.008Z,0.77
2023-11-30T15:13:18.280Z,0.98
2023-11-30T15:15:46.498Z,1.00
2023-11-30T15:18:14.964Z,0.75
2023-11-30T15:20:46.081Z,0.80
2023-11-30T15:23:14.303Z,0.40
2023-11-30T15:25:43.955Z,0.90
2023-11-30T15:28:12.373Z,0.43
2023-11-30T15:30:40.677Z,0.70
2023-11-30T15:33:10.483Z,0.77
2023-11-30T15:35:39.573Z,0.73
2023-11-30T15:38:08.276Z,0.90
2023-11-30T15:40:37.168Z,1.10
2023-11-30T15:43:06.838Z,0.80
2023-11-30T15:45:35.111Z,0.75
2023-11-30T15:48:03.419Z,0.85
2023-11-30T15:50:31.677Z,0.80
2023-11-30T15:53:01.008Z,0.75
2023-11-30T15:55:30.223Z,0.68
2023-11-30T15:57:58.370Z,0.70
2023-11-30T16:00:27.913Z,1.35
2023-11-30T16:02:56.192Z,0.95
2023-11-30T16:05:24.397Z,1.02
2023-11-30T16:07:52.689Z,1.00
2023-11-30T16:10:20.845Z,0.65
2023-11-30T16:12:49.114Z,1.10
2023-11-30T16:15:17.415Z,0.80
2023-11-30T16:17:48.654Z,0.70
2023-11-30T16:20:16.889Z,1.20
2023-11-30T16:22:45.224Z,1.20
2023-11-30T16:25:13.773Z,0.65
2023-11-30T16:27:42.850Z,0.80
2023-11-30T16:30:12.519Z,0.70
2023-11-30T16:32:40.817Z,1.13
2023-11-30T16:35:10.893Z,0.77
2023-11-30T16:37:39.257Z,1.00
2023-11-30T16:40:09.241Z,0.85
2023-11-30T16:42:37.547Z,0.80
2023-11-30T16:45:07.428Z,0.70
2023-11-30T16:47:35.702Z,1.00
2023-11-30T16:50:04.975Z,1.08
2023-11-30T16:52:34.585Z,0.50
2023-11-30T16:55:02.919Z,0.90
2023-11-30T16:57:33.436Z,0.70
2023-11-30T17:00:04.528Z,0.85
2023-11-30T17:02:32.820Z,0.80
2023-11-30T17:05:01.055Z,0.98
2023-11-30T17:07:29.584Z,0.90
2023-11-30T17:09:59.339Z,0.85
2023-11-30T17:12:28.727Z,0.68
2023-11-30T17:14:56.882Z,0.73
2023-11-30T17:17:25.100Z,0.75
2023-11-30T17:19:53.333Z,0.55
2023-11-30T17:22:22.316Z,0.70
2023-11-30T17:24:50.513Z,1.20
2023-11-30T17:27:20.219Z,0.63
2023-11-30T17:29:48.521Z,0.82
2023-11-30T17:32:16.830Z,0.95
2023-11-30T17:34:45.158Z,0.88
2023-11-30T17:37:14.234Z,0.70
2023-11-30T17:39:42.426Z,0.85
2023-11-30T17:42:10.561Z,0.85
2023-11-30T17:44:40.081Z,1.48
2023-11-30T17:47:08.250Z,0.93
2023-11-30T17:49:37.286Z,0.90
2023-11-30T17:52:05.918Z,1.50
2023-11-30T17:54:34.420Z,1.40
2023-11-30T17:57:02.766Z,0.93
2023-11-30T17:59:30.962Z,1.10
2023-11-30T18:02:00.615Z,0.90
2023-11-30T18:04:28.850Z,1.15
2023-11-30T18:06:57.154Z,0.90
2023-11-30T18:09:27.593Z,0.90
2023-11-30T18:11:56.231Z,0.70
2023-11-30T18:14:32.373Z,0.95
2023-11-30T18:17:02.236Z,0.90
2023-11-30T18:19:30.428Z,0.75
2023-11-30T18:21:58.991Z,0.60
2023-11-30T18:24:31.335Z,0.60
2023-11-30T18:26:59.946Z,0.60
2023-11-30T18:29:28.197Z,0.77
2023-11-30T18:31:56.974Z,0.80
2023-11-30T18:34:26.760Z,0.77
2023-11-30T18:36:55.184Z,0.95
2023-11-30T18:39:24.431Z,0.70
2023-11-30T18:41:55.457Z,0.98
2023-11-30T18:44:23.608Z,0.70
2023-11-30T18:46:51.816Z,0.68
2023-11-30T18:49:19.985Z,0.93
2023-11-30T18:51:49.726Z,0.57
2023-11-30T18:54:18.947Z,0.70
2023-11-30T18:56:48.609Z,0.93
2023-11-30T18:59:16.822Z,0.90
2023-11-30T19:01:45.199Z,0.80
2023-11-30T19:04:13.616Z,1.13
2023-11-30T19:06:42.065Z,0.77
2023-11-30T19:09:14.313Z,0.70
2023-11-30T19:11:42.492Z,0.98
2023-11-30T19:14:11.276Z,0.75
2023-11-30T19:16:41.296Z,0.65
2023-11-30T19:19:10.074Z,0.57
2023-11-30T19:21:42.220Z,0.63
2023-11-30T19:24:13.594Z,0.98
2023-11-30T19:26:44.252Z,0.55
2023-11-30T19:29:12.522Z,1.20
2023-11-30T19:31:40.786Z,0.70
2023-11-30T19:34:10.686Z,0.60
2023-11-30T19:36:40.207Z,0.52
2023-11-30T19:39:08.337Z,0.98
2023-11-30T19:41:37.958Z,0.70
2023-11-30T19:44:06.271Z,0.52
2023-11-30T19:46:34.539Z,0.82
2023-11-30T19:49:02.908Z,1.02
2023-11-30T19:51:31.202Z,0.60
2023-11-30T19:54:00.663Z,0.85
2023-11-30T19:56:29.813Z,0.80
2023-11-30T19:58:59.469Z,0.80
2023-11-30T20:01:27.794Z,0.68
2023-11-30T20:03:56.075Z,0.60
2023-11-30T20:06:24.359Z,0.80
2023-11-30T20:08:52.661Z,0.68
2023-11-30T20:11:22.714Z,0.90
2023-11-30T20:13:51.039Z,0.90
2023-11-30T20:16:20.664Z,0.98
2023-11-30T20:18:48.876Z,1.05
2023-11-30T20:21:19.459Z,1.10
2023-11-30T20:23:47.567Z,0.93
2023-11-30T20:26:18.249Z,1.15
2023-11-30T20:28:47.310Z,1.15
2023-11-30T20:31:15.703Z,1.20
2023-11-30T20:33:47.095Z,1.08
2023-11-30T20:36:15.844Z,0.90
2023-11-30T20:38:44.623Z,0.80
2023-11-30T20:41:13.174Z,0.73
2023-11-30T20:43:41.403Z,0.65
2023-11-30T20:46:09.738Z,0.68
2023-11-30T20:48:38.068Z,0.85
2023-11-30T20:51:10.138Z,1.63
2023-11-30T20:53:38.281Z,0.63
2023-11-30T20:56:09.131Z,0.90
2023-11-30T20:58:38.007Z,1.00
2023-11-30T21:01:08.194Z,0.98
2023-11-30T21:03:40.068Z,1.20
2023-11-30T21:06:10.933Z,1.20
2023-11-30T21:08:39.284Z,0.80
2023-11-30T21:11:08.658Z,1.30
2023-11-30T21:13:36.812Z,0.90
2023-11-30T21:16:05.530Z,1.20
2023-11-30T21:18:35.159Z,1.00
2023-11-30T21:21:03.387Z,0.98
2023-11-30T21:23:32.980Z,0.90
2023-11-30T21:26:01.109Z,0.80
2023-11-30T21:28:29.274Z,0.93
2023-11-30T21:30:57.550Z,0.80
2023-11-30T21:33:25.893Z,0.77
2023-11-30T21:35:54.084Z,1.00
2023-11-30T21:38:22.297Z,1.85
2023-11-30T21:40:51.882Z,0.75
2023-11-30T21:43:20.915Z,0.68
2023-11-30T21:45:49.089Z,1.17
2023-11-30T21:48:17.421Z,0.93
2023-11-30T21:50:45.691Z,0.90
2023-11-30T21:53:13.900Z,0.95
2023-11-30T21:55:42.107Z,0.85
2023-11-30T21:58:12.037Z,0.90
2023-11-30T22:00:40.707Z,0.90
2023-11-30T22:03:09.087Z,0.90
2023-11-30T22:05:37.782Z,0.93
2023-11-30T22:08:06.280Z,1.13
2023-11-30T22:10:34.638Z,0.70
2023-11-30T22:13:02.866Z,1.45
2023-11-30T22:15:32.518Z,0.88
2023-11-30T22:18:01.235Z,1.33
2023-11-30T22:20:29.472Z,1.00
2023-11-30T22:22:57.670Z,0.70
2023-11-30T22:25:25.868Z,0.73
2023-11-30T22:27:54.089Z,0.90
2023-11-30T22:30:22.367Z,1.05
2023-11-30T22:32:53.076Z,0.90
2023-11-30T22:35:21.289Z,0.80
2023-11-30T22:37:49.790Z,1.45
2023-11-30T22:40:18.130Z,0.95
2023-11-30T22:42:46.234Z,1.30
2023-11-30T22:45:14.622Z,1.05
2023-11-30T22:47:42.778Z,0.90
2023-11-30T22:50:12.659Z,0.93
2023-11-30T22:52:40.876Z,1.23
2023-11-30T22:55:09.950Z,1.05
2023-11-30T22:57:39.573Z,1.00
2023-11-30T23:00:14.190Z,1.02
2023-11-30T23:05:11.518Z,0.85
2023-11-30T23:07:41.876Z,0.57
2023-11-30T23:10:13.387Z,0.68
2023-11-30T23:12:42.119Z,0.82
2023-11-30T23:15:11.109Z,0.98
2023-11-30T23:17:39.517Z,0.55
2023-11-30T23:20:09.165Z,1.08
2023-11-30T23:22:37.827Z,0.77
2023-11-30T23:25:10.007Z,0.70
2023-11-30T23:27:38.299Z,0.73
2023-11-30T23:30:07.923Z,1.02
2023-11-30T23:32:36.227Z,0.68
2023-11-30T23:35:04.624Z,0.90
2023-11-30T23:37:32.863Z,0.60
2023-11-30T23:40:01.246Z,0.98
2023-11-30T23:42:31.129Z,0.32
2023-11-30T23:45:01.993Z,0.65
2023-11-30T23:47:30.377Z,0.77
2023-11-30T23:49:58.752Z,0.70
2023-11-30T23:52:27.068Z,0.60
2023-11-30T23:54:55.408Z,0.70
2023-11-30T23:57:23.754Z,0.98
2023-11-30T23:59:53.687Z,0.75
